Shinkai Maru — JJ4012 — position and weather

sailwx.info

Track history (hours):
 
Tides and Currents Weather Stations Pressure Air Temp Water Temp Dewpoint Dewpoint Depression Visibility Wind Speed Wind Dir Waves Ship Positions

Shinkai Maru

Last reported at 2014-Dec-15 09:05 UTC. Time now 2014-Dec-17 21:42 UTC.
Position N 34°22' E 134°59'.

Length 76 m; draft 4.2 m.

Type: Cargo ship. MMSI: 431301346.

Date/timePositionNaut miles runAvg speedWind from/ knotsBaromVisibWave heightAir tempDewpointWater temp
2014-Dec-15 09:05N 34°22' E 134°59'712.5
2014-Dec-15 08:33N 34°28' E 135°01'9 8.5
2014-Dec-15 07:30N 34°37' E 134°58'6 0.3
2014-Dec-14 12:30N 34°39' E 134°52'9 9.5
2014-Dec-14 11:32N 34°37' E 135°02'9 8.8
2014-Dec-14 10:33N 34°28' E 135°03'1210.9
2014-Dec-14 09:27N 34°16' E 135°00'6 6.8
2014-Dec-14 08:33N 34°15' E 135°07'0 0.0
2014-Dec-14 07:32N 34°15' E 135°07'0 0.0
2014-Dec-14 06:30N 34°15' E 135°07'0 0.0
2014-Dec-14 05:33N 34°15' E 135°07'0 0.0
2014-Dec-14 04:28N 34°15' E 135°07'0 0.1
2014-Dec-14 03:33N 34°15' E 135°07'0 0.0
2014-Dec-14 02:33N 34°15' E 135°07'0 0.0
2014-Dec-14 01:33N 34°15' E 135°07'0 0.1
2014-Dec-14 00:33N 34°15' E 135°07'0 0.0
2014-Dec-13 23:32N 34°15' E 135°07'0 0.0
2014-Dec-13 22:32N 34°15' E 135°07'0 0.0
2014-Dec-13 21:33N 34°15' E 135°07'0 0.0
2014-Dec-13 20:32N 34°15' E 135°07'0 0.0
2014-Dec-13 19:28N 34°15' E 135°07'0 0.0
2014-Dec-13 18:29N 34°15' E 135°07'0 0.0
2014-Dec-13 17:29N 34°15' E 135°07'0 0.0
2014-Dec-13 16:23N 34°15' E 135°07'0 0.0
2014-Dec-13 15:27N 34°15' E 135°07'0 0.0
2014-Dec-13 14:33N 34°15' E 135°07'0 0.0
2014-Dec-13 13:27N 34°15' E 135°07'0 0.0
2014-Dec-13 12:33N 34°15' E 135°07'0 0.0
2014-Dec-13 11:21N 34°15' E 135°07'0 0.0
2014-Dec-13 10:21N 34°15' E 135°07'1 0.9
2014-Dec-13 09:34N 34°15' E 135°06'1 0.6
2014-Dec-13 08:32N 34°15' E 135°06'0 0.0
2014-Dec-13 07:32N 34°15' E 135°06'0 0.0
2014-Dec-13 06:32N 34°15' E 135°06'0 0.0
2014-Dec-13 05:32N 34°15' E 135°06'0 0.2
2014-Dec-13 04:33N 34°15' E 135°05'10 9.1
2014-Dec-13 03:27N 34°25' E 135°08'1011.3
2014-Dec-13 02:33N 34°33' E 135°15'1110.9
2014-Dec-13 01:33N 34°41' E 135°24'0 0.1
2014-Dec-12 23:33N 34°42' E 135°24'2 2.0
2014-Dec-12 22:32N 34°40' E 135°23'0 0.0
2014-Dec-12 21:32N 34°40' E 135°23'0 0.0
2014-Dec-12 20:32N 34°40' E 135°23'0 0.0
2014-Dec-12 19:20N 34°40' E 135°23'0 0.0
2014-Dec-12 18:14N 34°40' E 135°23'0 0.0
2014-Dec-12 17:32N 34°40' E 135°23'0 0.0
2014-Dec-12 16:32N 34°40' E 135°23'0 0.0
2014-Dec-12 15:32N 34°40' E 135°23'0 0.0
2014-Dec-12 14:32N 34°40' E 135°23'0 0.0
2014-Dec-12 13:32N 34°40' E 135°23'8 8.3
2014-Dec-12 12:33N 34°34' E 135°16'1211.6
2014-Dec-12 11:31N 34°25' E 135°07'1010.7
2014-Dec-12 10:33N 34°16' E 134°60'1110.7
2014-Dec-12 09:33N 34°05' E 135°01'  
2014-Dec-08 07:32N 35°15' E 139°46'1010.6
2014-Dec-08 06:33N 35°25' E 139°44'5 0.3
2014-Dec-07 10:27N 35°27' E 139°50'1010.9
2014-Dec-07 09:33N 35°19' E 139°44'242 9.3
2014-Dec-06 07:25N 34°18' E 134°58'1112.1
2014-Dec-06 06:30N 34°29' E 135°01'9 9.0
2014-Dec-06 05:31N 34°36' E 134°56'7 0.6
2014-Dec-05 18:29N 34°40' E 134°49'910.0
2014-Dec-05 17:33N 34°38' E 134°60'7 6.6
2014-Dec-05 16:33N 34°32' E 135°05'1210.9
2014-Dec-05 15:26N 34°21' E 135°01'9 9.8
2014-Dec-05 14:33N 34°12' E 134°60'  
Track history (hours):
 
Tides and Currents Weather Stations Pressure Air Temp Water Temp Dewpoint Dewpoint Depression Visibility Wind Speed Wind Dir Waves Ship Positions

Shinkai Maru

Last reported at 2014-Dec-15 09:05 UTC. Time now 2014-Dec-17 21:42 UTC.
Position N 34°22' E 134°59'.

Length 76 m; draft 4.2 m.

Type: Cargo ship. MMSI: 431301346.

Date/timePositionNaut miles runAvg speedWind from/ knotsBaromVisibWave heightAir tempDewpointWater temp
2014-Dec-15 09:05N 34°22' E 134°59'712.5
2014-Dec-15 08:33N 34°28' E 135°01'9 8.5
2014-Dec-15 07:30N 34°37' E 134°58'6 0.3
2014-Dec-14 12:30N 34°39' E 134°52'9 9.5
2014-Dec-14 11:32N 34°37' E 135°02'9 8.8
2014-Dec-14 10:33N 34°28' E 135°03'1210.9
2014-Dec-14 09:27N 34°16' E 135°00'6 6.8
2014-Dec-14 08:33N 34°15' E 135°07'0 0.0
2014-Dec-14 07:32N 34°15' E 135°07'0 0.0
2014-Dec-14 06:30N 34°15' E 135°07'0 0.0
2014-Dec-14 05:33N 34°15' E 135°07'0 0.0
2014-Dec-14 04:28N 34°15' E 135°07'0 0.1
2014-Dec-14 03:33N 34°15' E 135°07'0 0.0
2014-Dec-14 02:33N 34°15' E 135°07'0 0.0
2014-Dec-14 01:33N 34°15' E 135°07'0 0.1
2014-Dec-14 00:33N 34°15' E 135°07'0 0.0
2014-Dec-13 23:32N 34°15' E 135°07'0 0.0
2014-Dec-13 22:32N 34°15' E 135°07'0 0.0
2014-Dec-13 21:33N 34°15' E 135°07'0 0.0
2014-Dec-13 20:32N 34°15' E 135°07'0 0.0
2014-Dec-13 19:28N 34°15' E 135°07'0 0.0
2014-Dec-13 18:29N 34°15' E 135°07'0 0.0
2014-Dec-13 17:29N 34°15' E 135°07'0 0.0
2014-Dec-13 16:23N 34°15' E 135°07'0 0.0
2014-Dec-13 15:27N 34°15' E 135°07'0 0.0
2014-Dec-13 14:33N 34°15' E 135°07'0 0.0
2014-Dec-13 13:27N 34°15' E 135°07'0 0.0
2014-Dec-13 12:33N 34°15' E 135°07'0 0.0
2014-Dec-13 11:21N 34°15' E 135°07'0 0.0
2014-Dec-13 10:21N 34°15' E 135°07'1 0.9
2014-Dec-13 09:34N 34°15' E 135°06'1 0.6
2014-Dec-13 08:32N 34°15' E 135°06'0 0.0
2014-Dec-13 07:32N 34°15' E 135°06'0 0.0
2014-Dec-13 06:32N 34°15' E 135°06'0 0.0
2014-Dec-13 05:32N 34°15' E 135°06'0 0.2
2014-Dec-13 04:33N 34°15' E 135°05'10 9.1
2014-Dec-13 03:27N 34°25' E 135°08'1011.3
2014-Dec-13 02:33N 34°33' E 135°15'1110.9
2014-Dec-13 01:33N 34°41' E 135°24'0 0.1
2014-Dec-12 23:33N 34°42' E 135°24'2 2.0
2014-Dec-12 22:32N 34°40' E 135°23'0 0.0
2014-Dec-12 21:32N 34°40' E 135°23'0 0.0
2014-Dec-12 20:32N 34°40' E 135°23'0 0.0
2014-Dec-12 19:20N 34°40' E 135°23'0 0.0
2014-Dec-12 18:14N 34°40' E 135°23'0 0.0
2014-Dec-12 17:32N 34°40' E 135°23'0 0.0
2014-Dec-12 16:32N 34°40' E 135°23'0 0.0
2014-Dec-12 15:32N 34°40' E 135°23'0 0.0
2014-Dec-12 14:32N 34°40' E 135°23'0 0.0
2014-Dec-12 13:32N 34°40' E 135°23'8 8.3
2014-Dec-12 12:33N 34°34' E 135°16'1211.6
2014-Dec-12 11:31N 34°25' E 135°07'1010.7
2014-Dec-12 10:33N 34°16' E 134°60'1110.7
2014-Dec-12 09:33N 34°05' E 135°01'  
2014-Dec-08 07:32N 35°15' E 139°46'1010.6
2014-Dec-08 06:33N 35°25' E 139°44'5 0.3
2014-Dec-07 10:27N 35°27' E 139°50'1010.9
2014-Dec-07 09:33N 35°19' E 139°44'242 9.3
2014-Dec-06 07:25N 34°18' E 134°58'1112.1
2014-Dec-06 06:30N 34°29' E 135°01'9 9.0
2014-Dec-06 05:31N 34°36' E 134°56'7 0.6
2014-Dec-05 18:29N 34°40' E 134°49'910.0
2014-Dec-05 17:33N 34°38' E 134°60'7 6.6
2014-Dec-05 16:33N 34°32' E 135°05'1210.9
2014-Dec-05 15:26N 34°21' E 135°01'9 9.8
2014-Dec-05 14:33N 34°12' E 134°60'  

Dump ship's entire track history